BAW22 EDDM-EGLL
Flight info
| Callsign | BAW22 |
|---|---|
| Flight time | 1h 28m |
| Altitude | 34000 |
| Route | GIVMI6Q/08L GIVMI Y101 INBED DCT REKDI DCT LOHRE DCT ADKUV DCT DENUT L608 LOGAN |
| Aircraft | B77W/H-SDE1E2E3FGHIJ2J3J4J5M1RWXY/LB1D1 |
Departure
| Time | 2026-04-30 19:01 |
|---|---|
| Airport | Munich Airport (EDDM) |
Arrival
| Time | 2026-04-30 20:29 |
|---|---|
| Airport | London Heathrow Airport (EGLL) |
| Time | Latitude | Longitude | Altitude | Speed | Heading |
|---|---|---|---|---|---|
| 2026-04-30 18:33 | 48.35410 | 11.79320 | 1465 ft | 0 kts | 273° |
| 2026-04-30 18:49 | 48.35410 | 11.79335 | 1472 ft | 4 kts | 273° |
| 2026-04-30 18:49 | 48.35408 | 11.79375 | 1464 ft | 4 kts | 272° |
| 2026-04-30 18:49 | 48.35407 | 11.79413 | 1460 ft | 2 kts | 272° |
| 2026-04-30 18:49 | 48.35403 | 11.79448 | 1460 ft | 4 kts | 308° |
| 2026-04-30 18:50 | 48.35383 | 11.79467 | 1460 ft | 4 kts | 353° |
| 2026-04-30 18:50 | 48.35361 | 11.79470 | 1460 ft | 1 kts | 353° |
| 2026-04-30 18:50 | 48.35357 | 11.79471 | 1460 ft | 0 kts | 353° |
| 2026-04-30 18:54 | 48.35360 | 11.79470 | 1464 ft | 1 kts | 353° |
| 2026-04-30 18:54 | 48.35412 | 11.79461 | 1463 ft | 15 kts | 353° |
| 2026-04-30 18:54 | 48.35531 | 11.79441 | 1463 ft | 22 kts | 353° |
| 2026-04-30 18:54 | 48.35676 | 11.79417 | 1461 ft | 24 kts | 354° |
| 2026-04-30 18:55 | 48.35824 | 11.79390 | 1466 ft | 25 kts | 353° |
| 2026-04-30 18:55 | 48.36026 | 11.79329 | 1468 ft | 0 kts | 353° |
| 2026-04-30 18:56 | 48.36075 | 11.79269 | 1462 ft | 8 kts | 289° |
| 2026-04-30 18:56 | 48.36080 | 11.79182 | 1470 ft | 9 kts | 263° |
| 2026-04-30 18:56 | 48.36073 | 11.79090 | 1469 ft | 9 kts | 263° |
| 2026-04-30 18:57 | 48.36059 | 11.78892 | 1465 ft | 10 kts | 264° |
| 2026-04-30 18:57 | 48.36049 | 11.78785 | 1464 ft | 11 kts | 262° |
| 2026-04-30 18:57 | 48.36041 | 11.78671 | 1472 ft | 11 kts | 264° |
| 2026-04-30 18:58 | 48.36023 | 11.78434 | 1464 ft | 13 kts | 262° |
| 2026-04-30 18:58 | 48.36004 | 11.78191 | 1461 ft | 34 kts | 263° |
| 2026-04-30 18:58 | 48.35979 | 11.77861 | 1469 ft | 29 kts | 263° |
| 2026-04-30 18:59 | 48.35933 | 11.77264 | 1465 ft | 29 kts | 263° |
| 2026-04-30 19:00 | 48.36056 | 11.76645 | 1462 ft | 22 kts | 351° |
| 2026-04-30 19:00 | 48.36194 | 11.76722 | 1460 ft | 22 kts | 36° |
| 2026-04-30 19:00 | 48.36298 | 11.77024 | 1471 ft | 46 kts | 83° |
| 2026-04-30 19:01 | 48.36547 | 11.80216 | 2102 ft | 201 kts | 83° |
| 2026-04-30 19:01 | 48.36713 | 11.82250 | 3110 ft | 191 kts | 83° |
| 2026-04-30 19:02 | 48.37446 | 11.86464 | 4242 ft | 229 kts | 54° |
| 2026-04-30 19:02 | 48.40529 | 11.88012 | 5889 ft | 262 kts | 352° |
| 2026-04-30 19:03 | 48.43498 | 11.84579 | 7486 ft | 284 kts | 309° |
| 2026-04-30 19:03 | 48.45902 | 11.79808 | 9375 ft | 290 kts | 310° |
| 2026-04-30 19:04 | 48.48471 | 11.74975 | 10995 ft | 307 kts | 313° |
| 2026-04-30 19:04 | 48.51481 | 11.69574 | 11564 ft | 363 kts | 313° |
| 2026-04-30 19:05 | 48.54844 | 11.63611 | 13457 ft | 381 kts | 314° |
| 2026-04-30 19:05 | 48.58334 | 11.57437 | 15567 ft | 391 kts | 315° |
| 2026-04-30 19:06 | 48.61871 | 11.51165 | 17664 ft | 399 kts | 315° |
| 2026-04-30 19:06 | 48.63683 | 11.47946 | 18681 ft | 404 kts | 315° |
| 2026-04-30 19:06 | 48.67365 | 11.41390 | 20478 ft | 413 kts | 316° |
| 2026-04-30 19:07 | 48.71276 | 11.34962 | 22172 ft | 414 kts | 327° |
| 2026-04-30 19:07 | 48.73684 | 11.32581 | 22992 ft | 415 kts | 334° |
| 2026-04-30 19:08 | 48.78635 | 11.27888 | 24590 ft | 424 kts | 332° |
| 2026-04-30 19:08 | 48.83654 | 11.22982 | 25918 ft | 430 kts | 337° |
| 2026-04-30 19:08 | 48.86332 | 11.20983 | 26582 ft | 431 kts | 342° |
| 2026-04-30 19:09 | 48.92001 | 11.18003 | 27891 ft | 434 kts | 348° |
| 2026-04-30 19:09 | 48.94885 | 11.16583 | 28504 ft | 438 kts | 348° |
| 2026-04-30 19:09 | 48.97799 | 11.15133 | 29112 ft | 442 kts | 348° |
| 2026-04-30 19:10 | 49.03506 | 11.11221 | 30235 ft | 463 kts | 334° |
| 2026-04-30 19:10 | 49.08563 | 11.04868 | 30393 ft | 481 kts | 321° |
| 2026-04-30 19:11 | 49.15585 | 10.93828 | 31010 ft | 486 kts | 320° |
| 2026-04-30 19:11 | 49.17943 | 10.90128 | 31526 ft | 486 kts | 320° |
| 2026-04-30 19:12 | 49.20305 | 10.86435 | 31997 ft | 487 kts | 320° |
| 2026-04-30 19:12 | 49.22677 | 10.82738 | 32422 ft | 487 kts | 320° |
| 2026-04-30 19:12 | 49.25046 | 10.79047 | 32964 ft | 485 kts | 320° |
| 2026-04-30 19:13 | 49.29731 | 10.71739 | 34147 ft | 478 kts | 320° |
| 2026-04-30 19:13 | 49.34367 | 10.64492 | 35075 ft | 475 kts | 320° |
| 2026-04-30 19:13 | 49.36682 | 10.60869 | 35361 ft | 477 kts | 320° |
| 2026-04-30 19:14 | 49.39012 | 10.57219 | 35582 ft | 480 kts | 320° |
| 2026-04-30 19:14 | 49.41351 | 10.53546 | 35784 ft | 482 kts | 320° |
| 2026-04-30 19:14 | 49.43698 | 10.49852 | 36028 ft | 484 kts | 320° |
| 2026-04-30 19:14 | 49.46049 | 10.46146 | 36275 ft | 485 kts | 320° |
| 2026-04-30 19:15 | 49.48410 | 10.42418 | 36492 ft | 486 kts | 320° |
| 2026-04-30 19:15 | 49.53133 | 10.34944 | 36862 ft | 489 kts | 319° |
| 2026-04-30 19:15 | 49.55511 | 10.31174 | 36948 ft | 492 kts | 319° |
| 2026-04-30 19:16 | 49.57902 | 10.27378 | 37065 ft | 494 kts | 319° |
| 2026-04-30 19:16 | 49.60294 | 10.23574 | 37250 ft | 494 kts | 319° |
| 2026-04-30 19:16 | 49.65066 | 10.15961 | 37772 ft | 492 kts | 319° |
| 2026-04-30 19:17 | 49.67442 | 10.12163 | 38035 ft | 491 kts | 319° |
| 2026-04-30 19:17 | 49.72156 | 10.04608 | 38294 ft | 480 kts | 319° |
| 2026-04-30 19:17 | 49.74439 | 10.00935 | 38341 ft | 467 kts | 319° |
| 2026-04-30 19:18 | 49.80379 | 9.91382 | 38374 ft | 462 kts | 319° |
| 2026-04-30 19:19 | 49.84839 | 9.84195 | 38389 ft | 464 kts | 319° |
| 2026-04-30 19:19 | 49.91544 | 9.73333 | 38368 ft | 465 kts | 319° |
| 2026-04-30 19:20 | 49.96016 | 9.66060 | 38369 ft | 466 kts | 319° |
| 2026-04-30 19:21 | 50.02712 | 9.55135 | 38353 ft | 465 kts | 318° |
| 2026-04-30 19:21 | 50.06546 | 9.46974 | 38388 ft | 473 kts | 301° |
| 2026-04-30 19:22 | 50.08862 | 9.37313 | 38389 ft | 480 kts | 289° |
| 2026-04-30 19:23 | 50.13989 | 9.07099 | 38365 ft | 481 kts | 288° |
| 2026-04-30 19:24 | 50.16610 | 8.91974 | 38358 ft | 482 kts | 288° |
| 2026-04-30 19:25 | 50.20937 | 8.66716 | 38353 ft | 482 kts | 288° |
| 2026-04-30 19:26 | 50.24347 | 8.46531 | 38347 ft | 483 kts | 288° |
| 2026-04-30 19:27 | 50.26891 | 8.31316 | 38350 ft | 482 kts | 288° |
| 2026-04-30 19:28 | 50.29410 | 8.16115 | 38350 ft | 481 kts | 287° |
| 2026-04-30 19:29 | 50.32732 | 7.95861 | 38351 ft | 480 kts | 287° |
| 2026-04-30 19:30 | 50.36017 | 7.75595 | 38338 ft | 480 kts | 286° |
| 2026-04-30 19:31 | 50.39265 | 7.55303 | 38343 ft | 480 kts | 286° |
| 2026-04-30 19:31 | 50.41681 | 7.40051 | 38326 ft | 481 kts | 285° |
| 2026-04-30 19:32 | 50.43281 | 7.29869 | 38333 ft | 481 kts | 285° |
| 2026-04-30 19:32 | 50.44871 | 7.19682 | 38333 ft | 481 kts | 285° |
| 2026-04-30 19:33 | 50.46454 | 7.09485 | 38331 ft | 481 kts | 285° |
| 2026-04-30 19:33 | 50.48027 | 6.99281 | 38334 ft | 481 kts | 285° |
| 2026-04-30 19:34 | 50.49594 | 6.89069 | 38326 ft | 480 kts | 285° |
| 2026-04-30 19:35 | 50.52504 | 6.74077 | 38339 ft | 478 kts | 293° |
| 2026-04-30 19:35 | 50.54949 | 6.64363 | 38315 ft | 478 kts | 293° |
| 2026-04-30 19:36 | 50.57383 | 6.54641 | 38320 ft | 478 kts | 293° |
| 2026-04-30 19:36 | 50.60977 | 6.39983 | 38305 ft | 479 kts | 292° |
| 2026-04-30 19:37 | 50.63359 | 6.30168 | 38305 ft | 480 kts | 292° |
| 2026-04-30 19:37 | 50.65738 | 6.20316 | 38300 ft | 481 kts | 292° |
| 2026-04-30 19:38 | 50.68114 | 6.10438 | 38294 ft | 482 kts | 292° |
| 2026-04-30 19:38 | 50.70486 | 6.00536 | 38296 ft | 482 kts | 291° |
| 2026-04-30 19:39 | 50.72846 | 5.90635 | 38295 ft | 482 kts | 291° |
| 2026-04-30 19:39 | 50.75197 | 5.80730 | 38291 ft | 482 kts | 291° |
| 2026-04-30 19:40 | 50.77537 | 5.70828 | 38294 ft | 481 kts | 291° |
| 2026-04-30 19:40 | 50.79867 | 5.60922 | 38285 ft | 481 kts | 291° |
| 2026-04-30 19:41 | 50.82170 | 5.51084 | 38291 ft | 480 kts | 291° |
| 2026-04-30 19:41 | 50.84478 | 5.41178 | 38290 ft | 480 kts | 290° |
| 2026-04-30 19:42 | 50.86777 | 5.31268 | 38285 ft | 480 kts | 290° |
| 2026-04-30 19:42 | 50.89084 | 5.21277 | 38284 ft | 480 kts | 290° |
| 2026-04-30 19:43 | 50.91352 | 5.11409 | 38280 ft | 480 kts | 290° |
| 2026-04-30 19:44 | 50.94767 | 4.96460 | 38285 ft | 481 kts | 290° |
| 2026-04-30 19:44 | 50.97038 | 4.86459 | 38295 ft | 482 kts | 290° |
| 2026-04-30 19:45 | 50.99303 | 4.76439 | 38288 ft | 483 kts | 290° |
| 2026-04-30 19:45 | 51.01563 | 4.66399 | 38262 ft | 483 kts | 289° |
| 2026-04-30 19:46 | 51.03813 | 4.56345 | 38269 ft | 483 kts | 289° |
| 2026-04-30 19:46 | 51.06055 | 4.46284 | 38294 ft | 483 kts | 289° |
| 2026-04-30 19:47 | 51.08287 | 4.36215 | 38296 ft | 482 kts | 289° |
| 2026-04-30 19:47 | 51.10507 | 4.26156 | 38287 ft | 482 kts | 289° |
| 2026-04-30 19:48 | 51.12719 | 4.16083 | 38283 ft | 482 kts | 289° |
| 2026-04-30 19:48 | 51.14921 | 4.06008 | 38274 ft | 482 kts | 289° |
| 2026-04-30 19:49 | 51.17114 | 3.95924 | 38268 ft | 482 kts | 289° |
| 2026-04-30 19:49 | 51.20389 | 3.80770 | 38254 ft | 482 kts | 288° |
| 2026-04-30 19:50 | 51.22563 | 3.70661 | 38263 ft | 482 kts | 288° |
| 2026-04-30 19:50 | 51.25292 | 3.60919 | 38242 ft | 481 kts | 300° |
| 2026-04-30 19:51 | 51.28756 | 3.51781 | 38249 ft | 481 kts | 301° |
| 2026-04-30 19:51 | 51.32170 | 3.42678 | 38247 ft | 480 kts | 300° |
| 2026-04-30 19:52 | 51.35381 | 3.33312 | 38250 ft | 480 kts | 292° |
| 2026-04-30 19:52 | 51.37752 | 3.23323 | 38237 ft | 481 kts | 289° |
| 2026-04-30 19:53 | 51.40080 | 3.13286 | 38252 ft | 481 kts | 290° |
| 2026-04-30 19:53 | 51.42447 | 3.03282 | 38245 ft | 480 kts | 290° |
| 2026-04-30 19:54 | 51.44794 | 2.93268 | 38236 ft | 480 kts | 289° |
| 2026-04-30 19:54 | 51.47129 | 2.83244 | 37727 ft | 487 kts | 289° |
| 2026-04-30 19:55 | 51.48319 | 2.78114 | 37052 ft | 489 kts | 289° |
| 2026-04-30 19:55 | 51.49499 | 2.73025 | 36598 ft | 482 kts | 289° |
| 2026-04-30 19:55 | 51.50660 | 2.68008 | 36109 ft | 477 kts | 289° |
| 2026-04-30 19:55 | 51.51805 | 2.63043 | 35645 ft | 472 kts | 289° |
| 2026-04-30 19:56 | 51.52940 | 2.58117 | 35162 ft | 469 kts | 289° |
| 2026-04-30 19:56 | 51.54063 | 2.53227 | 34685 ft | 465 kts | 289° |
| 2026-04-30 19:56 | 51.55175 | 2.48370 | 34205 ft | 462 kts | 289° |
| 2026-04-30 19:56 | 51.56274 | 2.43538 | 33670 ft | 459 kts | 289° |
| 2026-04-30 19:57 | 51.57362 | 2.38733 | 33178 ft | 455 kts | 288° |
| 2026-04-30 19:57 | 51.58438 | 2.33977 | 32709 ft | 451 kts | 288° |
| 2026-04-30 19:57 | 51.59514 | 2.29250 | 32232 ft | 448 kts | 288° |
| 2026-04-30 19:57 | 51.60581 | 2.24566 | 31772 ft | 445 kts | 288° |
| 2026-04-30 19:58 | 51.61640 | 2.19910 | 31308 ft | 442 kts | 288° |
| 2026-04-30 19:58 | 51.62690 | 2.15282 | 30858 ft | 439 kts | 288° |
| 2026-04-30 19:58 | 51.63729 | 2.10683 | 30406 ft | 436 kts | 288° |
| 2026-04-30 19:58 | 51.64763 | 2.06103 | 29898 ft | 434 kts | 288° |
| 2026-04-30 19:59 | 51.65789 | 2.01556 | 29387 ft | 430 kts | 288° |
| 2026-04-30 19:59 | 51.66805 | 1.97048 | 28927 ft | 426 kts | 288° |
| 2026-04-30 19:59 | 51.68806 | 1.88134 | 27999 ft | 420 kts | 288° |
| 2026-04-30 20:00 | 51.69792 | 1.83729 | 27535 ft | 417 kts | 288° |
| 2026-04-30 20:00 | 51.70771 | 1.79343 | 27090 ft | 414 kts | 288° |
| 2026-04-30 20:00 | 51.71742 | 1.74989 | 26644 ft | 411 kts | 288° |
| 2026-04-30 20:00 | 51.72704 | 1.70666 | 26196 ft | 409 kts | 288° |
| 2026-04-30 20:01 | 51.74543 | 1.62056 | 25296 ft | 401 kts | 281° |
| 2026-04-30 20:01 | 51.74729 | 1.57630 | 24731 ft | 393 kts | 261° |
| 2026-04-30 20:01 | 51.74377 | 1.53272 | 24201 ft | 394 kts | 260° |
| 2026-04-30 20:02 | 51.73728 | 1.44471 | 22916 ft | 400 kts | 261° |
| 2026-04-30 20:02 | 51.73424 | 1.40003 | 22296 ft | 401 kts | 261° |
| 2026-04-30 20:03 | 51.72829 | 1.31036 | 21087 ft | 402 kts | 261° |
| 2026-04-30 20:03 | 51.72533 | 1.26565 | 20506 ft | 402 kts | 261° |
| 2026-04-30 20:03 | 51.72233 | 1.22077 | 19903 ft | 402 kts | 261° |
| 2026-04-30 20:03 | 51.71932 | 1.17591 | 19304 ft | 402 kts | 261° |
| 2026-04-30 20:04 | 51.71628 | 1.13109 | 18714 ft | 403 kts | 261° |
| 2026-04-30 20:04 | 51.71322 | 1.08619 | 18060 ft | 403 kts | 262° |
| 2026-04-30 20:04 | 51.71116 | 1.05603 | 17616 ft | 398 kts | 261° |
| 2026-04-30 20:05 | 51.70510 | 0.96766 | 16431 ft | 395 kts | 261° |
| 2026-04-30 20:05 | 51.70208 | 0.92431 | 15897 ft | 393 kts | 261° |
| 2026-04-30 20:05 | 51.69605 | 0.83766 | 14940 ft | 386 kts | 261° |
| 2026-04-30 20:06 | 51.69305 | 0.79486 | 14470 ft | 382 kts | 261° |
| 2026-04-30 20:06 | 51.69007 | 0.75246 | 14000 ft | 380 kts | 261° |
| 2026-04-30 20:06 | 51.68709 | 0.71033 | 13487 ft | 377 kts | 261° |
| 2026-04-30 20:06 | 51.68410 | 0.66840 | 12996 ft | 373 kts | 260° |
| 2026-04-30 20:07 | 51.68114 | 0.62709 | 12530 ft | 370 kts | 260° |
| 2026-04-30 20:07 | 51.67819 | 0.58612 | 12067 ft | 361 kts | 260° |
| 2026-04-30 20:07 | 51.67278 | 0.51074 | 11245 ft | 328 kts | 259° |
| 2026-04-30 20:08 | 51.67010 | 0.47430 | 10910 ft | 326 kts | 259° |
| 2026-04-30 20:08 | 51.66744 | 0.43829 | 10591 ft | 317 kts | 259° |
| 2026-04-30 20:08 | 51.66482 | 0.40289 | 10149 ft | 320 kts | 259° |
| 2026-04-30 20:08 | 51.66220 | 0.36749 | 9886 ft | 316 kts | 259° |
| 2026-04-30 20:09 | 51.65961 | 0.33261 | 9660 ft | 312 kts | 260° |
| 2026-04-30 20:09 | 51.65707 | 0.29849 | 9341 ft | 310 kts | 260° |
| 2026-04-30 20:09 | 51.65194 | 0.22993 | 8630 ft | 307 kts | 260° |
| 2026-04-30 20:10 | 51.64684 | 0.16236 | 8207 ft | 296 kts | 260° |
| 2026-04-30 20:10 | 51.64460 | 0.12996 | 8210 ft | 292 kts | 261° |
| 2026-04-30 20:10 | 51.64272 | 0.09672 | 8229 ft | 303 kts | 262° |
| 2026-04-30 20:11 | 51.63905 | 0.02831 | 8087 ft | 309 kts | 262° |
| 2026-04-30 20:11 | 51.63719 | -0.00596 | 7995 ft | 306 kts | 262° |
| 2026-04-30 20:11 | 51.63533 | -0.03995 | 7811 ft | 304 kts | 262° |
| 2026-04-30 20:12 | 51.63158 | -0.10747 | 7371 ft | 300 kts | 262° |
| 2026-04-30 20:12 | 51.62972 | -0.14055 | 7311 ft | 294 kts | 262° |
| 2026-04-30 20:12 | 51.62785 | -0.17346 | 7274 ft | 296 kts | 262° |
| 2026-04-30 20:13 | 51.62593 | -0.20670 | 7278 ft | 300 kts | 262° |
| 2026-04-30 20:13 | 51.62399 | -0.24017 | 7270 ft | 301 kts | 262° |
| 2026-04-30 20:13 | 51.62207 | -0.27359 | 7263 ft | 300 kts | 262° |
| 2026-04-30 20:13 | 51.62012 | -0.30696 | 7267 ft | 299 kts | 262° |
| 2026-04-30 20:14 | 51.61817 | -0.34023 | 7189 ft | 299 kts | 262° |
| 2026-04-30 20:14 | 51.61622 | -0.37348 | 7186 ft | 299 kts | 262° |
| 2026-04-30 20:14 | 51.61426 | -0.40673 | 7183 ft | 299 kts | 262° |
| 2026-04-30 20:14 | 51.61228 | -0.44001 | 7184 ft | 299 kts | 262° |
| 2026-04-30 20:15 | 51.61029 | -0.47324 | 7185 ft | 299 kts | 262° |
| 2026-04-30 20:15 | 51.60830 | -0.50648 | 7183 ft | 298 kts | 262° |
| 2026-04-30 20:15 | 51.60631 | -0.53969 | 7183 ft | 296 kts | 262° |
| 2026-04-30 20:15 | 51.60444 | -0.57119 | 7153 ft | 271 kts | 261° |
| 2026-04-30 20:16 | 51.60266 | -0.60064 | 7166 ft | 258 kts | 261° |
| 2026-04-30 20:16 | 51.60095 | -0.62874 | 7210 ft | 251 kts | 261° |
| 2026-04-30 20:16 | 51.59919 | -0.65704 | 7208 ft | 255 kts | 261° |
| 2026-04-30 20:16 | 51.59745 | -0.68520 | 7189 ft | 250 kts | 261° |
| 2026-04-30 20:17 | 51.59573 | -0.71287 | 7186 ft | 247 kts | 261° |
| 2026-04-30 20:17 | 51.59402 | -0.74043 | 7207 ft | 249 kts | 261° |
| 2026-04-30 20:17 | 51.59137 | -0.76784 | 7049 ft | 248 kts | 247° |
| 2026-04-30 20:17 | 51.58114 | -0.78899 | 6630 ft | 239 kts | 209° |
| 2026-04-30 20:18 | 51.56590 | -0.79842 | 6163 ft | 234 kts | 199° |
| 2026-04-30 20:18 | 51.55277 | -0.81365 | 5639 ft | 237 kts | 230° |
| 2026-04-30 20:18 | 51.54664 | -0.83805 | 5195 ft | 238 kts | 260° |
| 2026-04-30 20:18 | 51.54611 | -0.86474 | 5036 ft | 235 kts | 265° |
| 2026-04-30 20:19 | 51.54595 | -0.88952 | 4998 ft | 209 kts | 265° |
| 2026-04-30 20:19 | 51.54584 | -0.91205 | 4995 ft | 198 kts | 265° |
| 2026-04-30 20:19 | 51.54575 | -0.93438 | 5012 ft | 201 kts | 265° |
| 2026-04-30 20:19 | 51.54555 | -0.95662 | 4986 ft | 195 kts | 258° |
| 2026-04-30 20:20 | 51.54013 | -0.97537 | 4991 ft | 183 kts | 219° |
| 2026-04-30 20:20 | 51.52904 | -0.98338 | 5001 ft | 175 kts | 184° |
| 2026-04-30 20:20 | 51.51667 | -0.98414 | 5009 ft | 181 kts | 180° |
| 2026-04-30 20:20 | 51.50404 | -0.98330 | 4827 ft | 182 kts | 163° |
| 2026-04-30 20:21 | 51.49409 | -0.97178 | 4610 ft | 178 kts | 128° |
| 2026-04-30 20:21 | 51.48750 | -0.95515 | 4364 ft | 177 kts | 126° |
| 2026-04-30 20:21 | 51.48091 | -0.93859 | 4127 ft | 175 kts | 126° |
| 2026-04-30 20:21 | 51.47596 | -0.92103 | 3848 ft | 177 kts | 103° |
| 2026-04-30 20:22 | 51.47553 | -0.90148 | 3635 ft | 173 kts | 98° |
| 2026-04-30 20:22 | 51.47527 | -0.88239 | 3568 ft | 172 kts | 94° |
| 2026-04-30 20:22 | 51.47644 | -0.86306 | 3510 ft | 175 kts | 91° |
| 2026-04-30 20:22 | 51.47747 | -0.84431 | 3489 ft | 160 kts | 99° |
| 2026-04-30 20:23 | 51.47654 | -0.82718 | 3489 ft | 151 kts | 102° |
| 2026-04-30 20:23 | 51.47586 | -0.81049 | 3488 ft | 150 kts | 100° |
| 2026-04-30 20:23 | 51.47558 | -0.79349 | 3507 ft | 155 kts | 98° |
| 2026-04-30 20:23 | 51.47552 | -0.77610 | 3517 ft | 156 kts | 97° |
| 2026-04-30 20:24 | 51.47558 | -0.75903 | 3415 ft | 150 kts | 97° |
| 2026-04-30 20:24 | 51.47566 | -0.74261 | 3234 ft | 148 kts | 97° |
| 2026-04-30 20:24 | 51.47574 | -0.72585 | 3031 ft | 152 kts | 97° |
| 2026-04-30 20:24 | 51.47586 | -0.70894 | 2757 ft | 149 kts | 97° |
| 2026-04-30 20:25 | 51.47608 | -0.67644 | 2588 ft | 140 kts | 97° |
| 2026-04-30 20:25 | 51.47619 | -0.66153 | 2502 ft | 129 kts | 98° |
| 2026-04-30 20:26 | 51.47704 | -0.63379 | 2006 ft | 123 kts | 93° |
| 2026-04-30 20:26 | 51.47754 | -0.60608 | 1572 ft | 123 kts | 97° |
| 2026-04-30 20:26 | 51.47740 | -0.59237 | 1394 ft | 123 kts | 97° |
| 2026-04-30 20:27 | 51.47722 | -0.56479 | 1044 ft | 123 kts | 93° |
| 2026-04-30 20:27 | 51.47746 | -0.53638 | 774 ft | 132 kts | 89° |
| 2026-04-30 20:28 | 51.47743 | -0.50620 | 397 ft | 134 kts | 88° |
| 2026-04-30 20:28 | 51.47757 | -0.47656 | 98 ft | 131 kts | 89° |
| 2026-04-30 20:29 | 51.47760 | -0.45615 | 92 ft | 48 kts | 90° |
| 2026-04-30 20:30 | 51.47650 | -0.45469 | 93 ft | 1 kts | 177° |
| 2026-04-30 20:30 | 51.47637 | -0.45468 | 93 ft | 1 kts | 177° |
| 2026-04-30 20:31 | 51.47607 | -0.45515 | 92 ft | 4 kts | 252° |
| 2026-04-30 20:32 | 51.47595 | -0.46009 | 94 ft | 16 kts | 270° |
| 2026-04-30 20:32 | 51.47594 | -0.46310 | 94 ft | 14 kts | 270° |
| 2026-04-30 20:33 | 51.47593 | -0.46476 | 94 ft | 16 kts | 269° |
| 2026-04-30 20:33 | 51.47585 | -0.46852 | 94 ft | 18 kts | 263° |
| 2026-04-30 20:33 | 51.47581 | -0.47057 | 94 ft | 19 kts | 270° |
| 2026-04-30 20:34 | 51.47579 | -0.47494 | 94 ft | 20 kts | 269° |
| 2026-04-30 20:34 | 51.47514 | -0.47871 | 94 ft | 20 kts | 185° |
| 2026-04-30 20:35 | 51.47373 | -0.47865 | 94 ft | 20 kts | 182° |
| 2026-04-30 20:35 | 51.47291 | -0.47871 | 91 ft | 1 kts | 181° |
| 2026-04-30 20:35 | 51.47171 | -0.47871 | 91 ft | 13 kts | 179° |
| 2026-04-30 20:36 | 51.47131 | -0.47835 | 93 ft | 4 kts | 115° |
| 2026-04-30 20:36 | 51.47125 | -0.47791 | 94 ft | 5 kts | 94° |
| 2026-04-30 20:36 | 51.47124 | -0.47740 | 94 ft | 0 kts | 90° |
| 2026-04-30 20:37 | 51.47124 | -0.47733 | 94 ft | 1 kts | 90° |
| 2026-04-30 20:37 | 51.47124 | -0.47726 | 94 ft | 0 kts | 90° |
| 2026-04-30 20:37 | 51.47124 | -0.47723 | 94 ft | 0 kts | 90° |